sensor_id;sensor_type;location;lat;lon;timestamp;pressure;altitude;pressure_sealevel;temperature;humidity
69214;BME280;56325;47.030;18.518;2023-04-28T00:02:22;100985.31;;;7.51;63.57
69214;BME280;56325;47.030;18.518;2023-04-28T00:04:57;100980.63;;;7.52;63.54
69214;BME280;56325;47.030;18.518;2023-04-28T00:07:33;100980.25;;;7.50;63.39
69214;BME280;56325;47.030;18.518;2023-04-28T00:10:09;100971.12;;;7.13;64.84
69214;BME280;56325;47.030;18.518;2023-04-28T00:12:43;100973.16;;;7.33;65.24
69214;BME280;56325;47.030;18.518;2023-04-28T00:15:18;100977.53;;;7.50;64.85
69214;BME280;56325;47.030;18.518;2023-04-28T00:17:52;100971.81;;;7.41;65.31
69214;BME280;56325;47.030;18.518;2023-04-28T00:20:27;100974.16;;;7.19;65.97
69214;BME280;56325;47.030;18.518;2023-04-28T00:23:03;100972.56;;;7.21;65.88
69214;BME280;56325;47.030;18.518;2023-04-28T00:25:38;100971.72;;;7.24;65.40
69214;BME280;56325;47.030;18.518;2023-04-28T00:28:13;100963.09;;;7.26;65.11
69214;BME280;56325;47.030;18.518;2023-04-28T00:31:09;100957.69;;;7.22;65.50
69214;BME280;56325;47.030;18.518;2023-04-28T00:33:45;100971.31;;;7.26;65.08
69214;BME280;56325;47.030;18.518;2023-04-28T00:36:20;100987.59;;;7.10;64.63
69214;BME280;56325;47.030;18.518;2023-04-28T00:38:55;100983.94;;;6.73;65.81
69214;BME280;56325;47.030;18.518;2023-04-28T00:41:30;100983.31;;;6.62;66.31
69214;BME280;56325;47.030;18.518;2023-04-28T00:44:04;100984.25;;;6.52;67.12
69214;BME280;56325;47.030;18.518;2023-04-28T00:46:39;100977.56;;;6.26;68.00
69214;BME280;56325;47.030;18.518;2023-04-28T00:49:15;100977.69;;;6.46;67.53
69214;BME280;56325;47.030;18.518;2023-04-28T00:51:50;100969.97;;;6.41;67.99
69214;BME280;56325;47.030;18.518;2023-04-28T00:54:25;100975.25;;;6.78;67.14
69214;BME280;56325;47.030;18.518;2023-04-28T00:57:01;100968.66;;;6.76;66.58
69214;BME280;56325;47.030;18.518;2023-04-28T00:59:36;100960.09;;;6.97;66.11
69214;BME280;56325;47.030;18.518;2023-04-28T01:02:11;100980.78;;;6.75;66.63
69214;BME280;56325;47.030;18.518;2023-04-28T01:04:49;100975.50;;;6.87;65.93
69214;BME280;56325;47.030;18.518;2023-04-28T01:07:25;100972.00;;;6.87;65.92
69214;BME280;56325;47.030;18.518;2023-04-28T01:10:02;100968.72;;;6.72;66.47
69214;BME280;56325;47.030;18.518;2023-04-28T01:12:38;100979.03;;;6.61;66.95
69214;BME280;56325;47.030;18.518;2023-04-28T01:15:15;100969.44;;;6.49;66.74
69214;BME280;56325;47.030;18.518;2023-04-28T01:17:51;100974.66;;;6.40;67.20
69214;BME280;56325;47.030;18.518;2023-04-28T01:20:25;100983.25;;;6.66;66.38
69214;BME280;56325;47.030;18.518;2023-04-28T01:23:00;100980.72;;;6.51;66.59
69214;BME280;56325;47.030;18.518;2023-04-28T01:25:36;100982.47;;;6.38;66.84
69214;BME280;56325;47.030;18.518;2023-04-28T01:28:11;100984.44;;;6.65;65.33
69214;BME280;56325;47.030;18.518;2023-04-28T01:30:45;100991.72;;;6.75;64.69
69214;BME280;56325;47.030;18.518;2023-04-28T01:33:23;100993.41;;;6.65;64.69
69214;BME280;56325;47.030;18.518;2023-04-28T01:35:57;100999.91;;;6.75;64.23
69214;BME280;56325;47.030;18.518;2023-04-28T01:38:32;100997.53;;;6.77;63.98
69214;BME280;56325;47.030;18.518;2023-04-28T01:41:08;101000.38;;;6.70;63.80
69214;BME280;56325;47.030;18.518;2023-04-28T01:43:43;100996.09;;;6.42;63.84
69214;BME280;56325;47.030;18.518;2023-04-28T01:46:17;100991.19;;;6.30;64.63
69214;BME280;56325;47.030;18.518;2023-04-28T01:48:55;100999.59;;;6.12;66.42
69214;BME280;56325;47.030;18.518;2023-04-28T01:51:30;101000.16;;;6.30;66.26
69214;BME280;56325;47.030;18.518;2023-04-28T01:54:05;100998.25;;;6.54;65.58
69214;BME280;56325;47.030;18.518;2023-04-28T01:56:41;100995.81;;;6.33;65.84
69214;BME280;56325;47.030;18.518;2023-04-28T01:59:18;101004.59;;;6.17;66.82
69214;BME280;56325;47.030;18.518;2023-04-28T02:01:53;100997.47;;;6.27;66.63
69214;BME280;56325;47.030;18.518;2023-04-28T02:04:27;101001.59;;;6.08;67.15
69214;BME280;56325;47.030;18.518;2023-04-28T02:07:02;100994.56;;;6.10;67.45
69214;BME280;56325;47.030;18.518;2023-04-28T02:09:38;101002.44;;;6.05;67.81
69214;BME280;56325;47.030;18.518;2023-04-28T02:12:13;101002.44;;;6.05;67.54
69214;BME280;56325;47.030;18.518;2023-04-28T02:14:49;101002.97;;;6.23;67.30
69214;BME280;56325;47.030;18.518;2023-04-28T02:17:24;100998.50;;;6.36;67.01
69214;BME280;56325;47.030;18.518;2023-04-28T02:19:59;100998.81;;;6.42;66.86
69214;BME280;56325;47.030;18.518;2023-04-28T02:22:34;101005.88;;;6.39;66.62
69214;BME280;56325;47.030;18.518;2023-04-28T02:25:08;101011.16;;;6.23;66.86
69214;BME280;56325;47.030;18.518;2023-04-28T02:27:44;101016.50;;;6.34;66.87
69214;BME280;56325;47.030;18.518;2023-04-28T02:30:19;101017.41;;;6.23;67.27
69214;BME280;56325;47.030;18.518;2023-04-28T02:32:54;101019.53;;;6.09;67.57
69214;BME280;56325;47.030;18.518;2023-04-28T02:35:28;101019.25;;;6.03;68.33
69214;BME280;56325;47.030;18.518;2023-04-28T02:38:03;101016.56;;;6.00;68.52
69214;BME280;56325;47.030;18.518;2023-04-28T02:40:38;101014.81;;;6.13;67.15
69214;BME280;56325;47.030;18.518;2023-04-28T02:43:14;101017.03;;;5.91;67.71
69214;BME280;56325;47.030;18.518;2023-04-28T02:45:49;101013.78;;;5.66;68.15
69214;BME280;56325;47.030;18.518;2023-04-28T02:48:24;101023.03;;;5.75;68.73
69214;BME280;56325;47.030;18.518;2023-04-28T02:50:58;101024.56;;;5.76;68.33
69214;BME280;56325;47.030;18.518;2023-04-28T02:53:34;101026.28;;;5.63;68.29
69214;BME280;56325;47.030;18.518;2023-04-28T02:56:08;101024.81;;;5.93;68.14
69214;BME280;56325;47.030;18.518;2023-04-28T02:58:44;101023.16;;;6.02;67.88
69214;BME280;56325;47.030;18.518;2023-04-28T03:01:19;101019.13;;;6.10;67.75
69214;BME280;56325;47.030;18.518;2023-04-28T03:03:54;101017.16;;;6.11;68.26
69214;BME280;56325;47.030;18.518;2023-04-28T03:06:29;101011.75;;;6.07;68.15
69214;BME280;56325;47.030;18.518;2023-04-28T03:09:04;101017.38;;;5.97;68.92
69214;BME280;56325;47.030;18.518;2023-04-28T03:11:39;101016.72;;;6.16;68.52
69214;BME280;56325;47.030;18.518;2023-04-28T03:14:15;101021.72;;;6.21;68.56
69214;BME280;56325;47.030;18.518;2023-04-28T03:16:50;101015.31;;;6.35;68.70
69214;BME280;56325;47.030;18.518;2023-04-28T03:19:25;101023.31;;;6.49;68.15
69214;BME280;56325;47.030;18.518;2023-04-28T03:22:00;101013.47;;;6.55;67.92
69214;BME280;56325;47.030;18.518;2023-04-28T03:24:37;101015.63;;;6.40;68.72
69214;BME280;56325;47.030;18.518;2023-04-28T03:27:11;101014.88;;;6.67;67.78
69214;BME280;56325;47.030;18.518;2023-04-28T03:29:47;101015.53;;;6.47;68.53
69214;BME280;56325;47.030;18.518;2023-04-28T03:32:22;101015.78;;;6.56;68.64
69214;BME280;56325;47.030;18.518;2023-04-28T03:34:57;101019.97;;;6.92;67.38
69214;BME280;56325;47.030;18.518;2023-04-28T03:37:32;101016.41;;;6.68;68.05
69214;BME280;56325;47.030;18.518;2023-04-28T03:40:07;101017.91;;;6.72;68.20
69214;BME280;56325;47.030;18.518;2023-04-28T03:42:44;101009.28;;;6.74;67.66
69214;BME280;56325;47.030;18.518;2023-04-28T03:45:21;100999.91;;;6.75;67.48
69214;BME280;56325;47.030;18.518;2023-04-28T03:47:55;101007.63;;;6.80;67.48
69214;BME280;56325;47.030;18.518;2023-04-28T03:50:30;101011.66;;;6.72;68.17
69214;BME280;56325;47.030;18.518;2023-04-28T03:53:05;101005.88;;;6.93;67.62
69214;BME280;56325;47.030;18.518;2023-04-28T03:55:40;101002.59;;;7.02;67.51
69214;BME280;56325;47.030;18.518;2023-04-28T03:58:14;101008.81;;;7.02;67.43
69214;BME280;56325;47.030;18.518;2023-04-28T04:00:50;101005.88;;;7.16;67.61
69214;BME280;56325;47.030;18.518;2023-04-28T04:03:26;101013.94;;;7.23;67.90
69214;BME280;56325;47.030;18.518;2023-04-28T04:06:01;101029.41;;;7.34;67.98
69214;BME280;56325;47.030;18.518;2023-04-28T04:08:36;101016.44;;;7.38;67.35
69214;BME280;56325;47.030;18.518;2023-04-28T04:11:10;101013.53;;;7.48;67.31
69214;BME280;56325;47.030;18.518;2023-04-28T04:13:45;101011.13;;;7.50;67.56
69214;BME280;56325;47.030;18.518;2023-04-28T04:16:21;101013.81;;;7.54;67.23
69214;BME280;56325;47.030;18.518;2023-04-28T04:18:58;101009.97;;;7.71;66.34
69214;BME280;56325;47.030;18.518;2023-04-28T04:21:33;101021.13;;;7.61;66.74
69214;BME280;56325;47.030;18.518;2023-04-28T04:24:08;101012.63;;;7.95;66.52
69214;BME280;56325;47.030;18.518;2023-04-28T04:26:42;101012.41;;;8.05;65.70
69214;BME280;56325;47.030;18.518;2023-04-28T04:29:19;101009.75;;;8.02;65.23
69214;BME280;56325;47.030;18.518;2023-04-28T04:31:55;101016.41;;;8.01;65.95
69214;BME280;56325;47.030;18.518;2023-04-28T04:34:29;101011.47;;;8.51;77.35
69214;BME280;56325;47.030;18.518;2023-04-28T04:37:04;101010.13;;;11.82;90.11
69214;BME280;56325;47.030;18.518;2023-04-28T04:39:40;101005.88;;;10.48;73.97
69214;BME280;56325;47.030;18.518;2023-04-28T04:42:14;100998.75;;;9.97;70.12
69214;BME280;56325;47.030;18.518;2023-04-28T04:44:56;101000.72;;;9.67;69.85
69214;BME280;56325;47.030;18.518;2023-04-28T04:47:32;101009.78;;;8.90;65.48
69214;BME280;56325;47.030;18.518;2023-04-28T04:50:08;101010.00;;;8.47;68.87
69214;BME280;56325;47.030;18.518;2023-04-28T04:52:42;101007.06;;;8.18;69.02
69214;BME280;56325;47.030;18.518;2023-04-28T04:55:17;101007.72;;;8.06;69.61
69214;BME280;56325;47.030;18.518;2023-04-28T04:57:53;101013.34;;;7.79;69.68
69214;BME280;56325;47.030;18.518;2023-04-28T05:00:29;101007.16;;;7.95;69.40
69214;BME280;56325;47.030;18.518;2023-04-28T05:03:05;101012.63;;;7.95;69.21
69214;BME280;56325;47.030;18.518;2023-04-28T05:05:43;101019.16;;;8.20;69.10
69214;BME280;56325;47.030;18.518;2023-04-28T05:08:18;101020.78;;;7.78;70.07
69214;BME280;56325;47.030;18.518;2023-04-28T05:10:53;101006.09;;;10.92;94.61
69214;BME280;56325;47.030;18.518;2023-04-28T05:13:28;101007.75;;;10.51;77.12
69214;BME280;56325;47.030;18.518;2023-04-28T05:16:04;101006.78;;;10.04;72.12
69214;BME280;56325;47.030;18.518;2023-04-28T05:18:41;100991.78;;;11.88;86.69
69214;BME280;56325;47.030;18.518;2023-04-28T05:21:16;100999.28;;;11.88;73.13
69214;BME280;56325;47.030;18.518;2023-04-28T05:23:50;101011.09;;;11.19;68.66
69214;BME280;56325;47.030;18.518;2023-04-28T05:26:25;101010.59;;;10.61;66.58
69214;BME280;56325;47.030;18.518;2023-04-28T05:29:02;101021.38;;;10.30;65.74
69214;BME280;56325;47.030;18.518;2023-04-28T05:31:37;101009.06;;;10.22;65.52
69214;BME280;56325;47.030;18.518;2023-04-28T05:34:12;101014.28;;;10.16;65.38
69214;BME280;56325;47.030;18.518;2023-04-28T05:36:48;101013.50;;;10.03;63.57
69214;BME280;56325;47.030;18.518;2023-04-28T05:39:23;101020.47;;;9.91;63.27
69214;BME280;56325;47.030;18.518;2023-04-28T05:41:57;101027.19;;;9.90;62.10
69214;BME280;56325;47.030;18.518;2023-04-28T05:44:32;101023.28;;;9.46;63.29
69214;BME280;56325;47.030;18.518;2023-04-28T05:47:06;101031.78;;;9.51;66.40
69214;BME280;56325;47.030;18.518;2023-04-28T05:49:42;101026.75;;;9.92;66.29
69214;BME280;56325;47.030;18.518;2023-04-28T05:52:17;101020.53;;;9.75;65.46
69214;BME280;56325;47.030;18.518;2023-04-28T05:54:51;101020.59;;;9.88;65.05
69214;BME280;56325;47.030;18.518;2023-04-28T05:57:26;101017.97;;;9.97;64.41
69214;BME280;56325;47.030;18.518;2023-04-28T06:02:53;101012.06;;;12.25;85.37
69214;BME280;56325;47.030;18.518;2023-04-28T06:05:29;101012.06;;;12.25;85.37
69214;BME280;56325;47.030;18.518;2023-04-28T06:08:04;101022.09;;;12.72;76.35
69214;BME280;56325;47.030;18.518;2023-04-28T06:10:40;101013.72;;;13.03;80.51
69214;BME280;56325;47.030;18.518;2023-04-28T06:13:14;101013.06;;;13.39;70.42
69214;BME280;56325;47.030;18.518;2023-04-28T06:15:49;101011.97;;;12.69;62.52
69214;BME280;56325;47.030;18.518;2023-04-28T06:18:25;101014.88;;;12.34;63.11
69214;BME280;56325;47.030;18.518;2023-04-28T06:21:00;101021.94;;;12.13;60.00
69214;BME280;56325;47.030;18.518;2023-04-28T06:23:35;101019.72;;;11.43;59.58
69214;BME280;56325;47.030;18.518;2023-04-28T06:26:11;101025.53;;;11.45;59.87
69214;BME280;56325;47.030;18.518;2023-04-28T06:28:46;101043.59;;;11.46;60.33
69214;BME280;56325;47.030;18.518;2023-04-28T06:31:21;101046.91;;;11.54;60.99
69214;BME280;56325;47.030;18.518;2023-04-28T06:33:59;101044.72;;;11.48;59.74
69214;BME280;56325;47.030;18.518;2023-04-28T06:36:34;101033.63;;;11.27;60.86
69214;BME280;56325;47.030;18.518;2023-04-28T06:39:08;101032.91;;;11.48;60.64
69214;BME280;56325;47.030;18.518;2023-04-28T06:41:44;101038.31;;;11.52;61.02
69214;BME280;56325;47.030;18.518;2023-04-28T06:44:20;101025.22;;;11.43;59.56
69214;BME280;56325;47.030;18.518;2023-04-28T06:46:54;101033.44;;;11.56;60.52
69214;BME280;56325;47.030;18.518;2023-04-28T06:49:30;101035.50;;;11.64;60.45
69214;BME280;56325;47.030;18.518;2023-04-28T06:52:05;101032.28;;;11.44;59.88
69214;BME280;56325;47.030;18.518;2023-04-28T06:54:40;101028.31;;;11.45;61.42
69214;BME280;56325;47.030;18.518;2023-04-28T06:57:15;101030.37;;;11.54;62.15
69214;BME280;56325;47.030;18.518;2023-04-28T06:59:50;101024.94;;;11.63;62.58
69214;BME280;56325;47.030;18.518;2023-04-28T07:02:25;101035.59;;;11.73;63.23
69214;BME280;56325;47.030;18.518;2023-04-28T07:05:01;101025.78;;;11.72;62.25
69214;BME280;56325;47.030;18.518;2023-04-28T07:07:36;101030.66;;;11.68;62.12
69214;BME280;56325;47.030;18.518;2023-04-28T07:10:11;101037.91;;;11.75;61.89
69214;BME280;56325;47.030;18.518;2023-04-28T07:12:49;101027.31;;;11.73;62.15
69214;BME280;56325;47.030;18.518;2023-04-28T07:15:23;101031.91;;;11.89;62.12
69214;BME280;56325;47.030;18.518;2023-04-28T07:17:58;101030.56;;;11.94;62.39
69214;BME280;56325;47.030;18.518;2023-04-28T07:20:34;101022.56;;;12.39;74.54
69214;BME280;56325;47.030;18.518;2023-04-28T07:23:08;101019.94;;;14.59;78.24
69214;BME280;56325;47.030;18.518;2023-04-28T07:25:43;101021.59;;;15.46;72.44
69214;BME280;56325;47.030;18.518;2023-04-28T07:28:19;101017.75;;;14.02;57.20
69214;BME280;56325;47.030;18.518;2023-04-28T07:30:53;101021.94;;;13.34;57.94
69214;BME280;56325;47.030;18.518;2023-04-28T07:33:30;101017.31;;;13.22;57.81
69214;BME280;56325;47.030;18.518;2023-04-28T07:36:06;101008.66;;;12.92;59.30
69214;BME280;56325;47.030;18.518;2023-04-28T07:38:41;101002.19;;;12.86;58.92
69214;BME280;56325;47.030;18.518;2023-04-28T07:41:16;101000.63;;;12.76;59.08
69214;BME280;56325;47.030;18.518;2023-04-28T07:43:51;100996.69;;;12.86;59.48
69214;BME280;56325;47.030;18.518;2023-04-28T07:46:25;100987.47;;;12.80;59.64
69214;BME280;56325;47.030;18.518;2023-04-28T07:49:00;100990.09;;;12.93;57.62
69214;BME280;56325;47.030;18.518;2023-04-28T07:51:36;100983.81;;;13.10;56.35
69214;BME280;56325;47.030;18.518;2023-04-28T07:54:11;100969.47;;;13.25;56.73
69214;BME280;56325;47.030;18.518;2023-04-28T07:56:45;100966.38;;;13.59;54.06
69214;BME280;56325;47.030;18.518;2023-04-28T07:59:20;100959.47;;;13.82;50.90
69214;BME280;56325;47.030;18.518;2023-04-28T08:01:54;100960.53;;;13.85;48.63
69214;BME280;56325;47.030;18.518;2023-04-28T08:04:29;100960.91;;;14.10;49.13
69214;BME280;56325;47.030;18.518;2023-04-28T08:07:08;100958.75;;;14.57;61.32
69214;BME280;56325;47.030;18.518;2023-04-28T08:09:43;100955.78;;;15.70;60.63
69214;BME280;56325;47.030;18.518;2023-04-28T08:12:19;100955.41;;;15.92;56.45
69214;BME280;56325;47.030;18.518;2023-04-28T08:14:55;100953.22;;;15.04;45.20
69214;BME280;56325;47.030;18.518;2023-04-28T08:17:30;100950.97;;;15.18;45.65
69214;BME280;56325;47.030;18.518;2023-04-28T08:20:06;100958.41;;;15.12;46.44
69214;BME280;56325;47.030;18.518;2023-04-28T08:22:42;100942.97;;;15.20;45.18
69214;BME280;56325;47.030;18.518;2023-04-28T08:25:17;100951.69;;;15.03;41.57
69214;BME280;56325;47.030;18.518;2023-04-28T08:27:51;100944.69;;;14.93;42.08
69214;BME280;56325;47.030;18.518;2023-04-28T08:30:29;100935.19;;;15.09;40.85
69214;BME280;56325;47.030;18.518;2023-04-28T08:33:04;100922.69;;;15.14;40.96
69214;BME280;56325;47.030;18.518;2023-04-28T08:35:39;100920.69;;;15.53;41.35
69214;BME280;56325;47.030;18.518;2023-04-28T08:38:15;100923.91;;;15.51;41.26
69214;BME280;56325;47.030;18.518;2023-04-28T08:40:50;100923.09;;;15.89;41.79
69214;BME280;56325;47.030;18.518;2023-04-28T08:43:24;100920.78;;;15.88;40.05
69214;BME280;56325;47.030;18.518;2023-04-28T08:46:04;100913.12;;;15.97;37.72
69214;BME280;56325;47.030;18.518;2023-04-28T08:48:40;100920.69;;;15.67;37.34
69214;BME280;56325;47.030;18.518;2023-04-28T08:51:23;100900.59;;;16.02;38.15
69214;BME280;56325;47.030;18.518;2023-04-28T08:54:02;100899.50;;;16.29;38.57
69214;BME280;56325;47.030;18.518;2023-04-28T08:56:41;100891.81;;;16.38;36.08
69214;BME280;56325;47.030;18.518;2023-04-28T08:59:17;100899.59;;;16.55;37.86
69214;BME280;56325;47.030;18.518;2023-04-28T09:01:53;100903.09;;;16.00;34.72
69214;BME280;56325;47.030;18.518;2023-04-28T09:04:29;100904.63;;;16.01;36.02
69214;BME280;56325;47.030;18.518;2023-04-28T09:07:09;100903.84;;;16.15;35.65
69214;BME280;56325;47.030;18.518;2023-04-28T09:09:46;100896.81;;;16.55;38.15
69214;BME280;56325;47.030;18.518;2023-04-28T09:12:20;100900.34;;;16.90;36.55
69214;BME280;56325;47.030;18.518;2023-04-28T09:14:57;100906.28;;;17.24;38.59
69214;BME280;56325;47.030;18.518;2023-04-28T09:17:47;100899.34;;;17.40;36.14
69214;BME280;56325;47.030;18.518;2023-04-28T09:20:24;100902.13;;;16.93;35.91
69214;BME280;56325;47.030;18.518;2023-04-28T09:23:13;100902.28;;;16.84;36.24
69214;BME280;56325;47.030;18.518;2023-04-28T09:25:58;100900.25;;;16.29;36.00
69214;BME280;56325;47.030;18.518;2023-04-28T09:28:34;100902.47;;;16.25;38.19
69214;BME280;56325;47.030;18.518;2023-04-28T09:31:21;100907.34;;;16.30;36.35
69214;BME280;56325;47.030;18.518;2023-04-28T09:33:58;100903.72;;;16.24;37.29
69214;BME280;56325;47.030;18.518;2023-04-28T09:36:32;100907.78;;;16.44;37.59
69214;BME280;56325;47.030;18.518;2023-04-28T09:39:07;100904.56;;;16.30;37.35
69214;BME280;56325;47.030;18.518;2023-04-28T09:41:43;100906.94;;;16.37;36.37
69214;BME280;56325;47.030;18.518;2023-04-28T09:44:18;100899.88;;;16.36;36.91
69214;BME280;56325;47.030;18.518;2023-04-28T09:46:53;100912.59;;;16.28;37.38
69214;BME280;56325;47.030;18.518;2023-04-28T09:49:28;100908.03;;;16.25;36.00
69214;BME280;56325;47.030;18.518;2023-04-28T09:52:11;100906.72;;;16.06;35.87
69214;BME280;56325;47.030;18.518;2023-04-28T09:54:48;100898.88;;;16.04;35.70
69214;BME280;56325;47.030;18.518;2023-04-28T09:57:24;100899.84;;;16.01;38.43
69214;BME280;56325;47.030;18.518;2023-04-28T10:00:04;100885.28;;;16.06;36.90
69214;BME280;56325;47.030;18.518;2023-04-28T10:02:43;100883.91;;;16.31;39.51
69214;BME280;56325;47.030;18.518;2023-04-28T10:05:18;100882.66;;;16.53;36.86
69214;BME280;56325;47.030;18.518;2023-04-28T10:07:55;100876.56;;;17.10;45.89
69214;BME280;56325;47.030;18.518;2023-04-28T10:10:32;100860.44;;;17.97;51.12
69214;BME280;56325;47.030;18.518;2023-04-28T10:13:09;100862.56;;;16.98;34.62
69214;BME280;56325;47.030;18.518;2023-04-28T10:15:44;100864.72;;;16.89;42.14
69214;BME280;56325;47.030;18.518;2023-04-28T10:18:22;100856.12;;;17.13;36.56
69214;BME280;56325;47.030;18.518;2023-04-28T10:20:58;100855.16;;;17.16;35.90
69214;BME280;56325;47.030;18.518;2023-04-28T10:24:02;100854.63;;;17.12;34.81
69214;BME280;56325;47.030;18.518;2023-04-28T10:27:06;100846.00;;;17.10;35.04
69214;BME280;56325;47.030;18.518;2023-04-28T10:29:43;100853.87;;;16.91;35.17
69214;BME280;56325;47.030;18.518;2023-04-28T10:32:22;100844.91;;;17.01;36.87
69214;BME280;56325;47.030;18.518;2023-04-28T10:38:10;100840.00;;;16.70;34.00
69214;BME280;56325;47.030;18.518;2023-04-28T10:40:46;100829.09;;;16.67;35.33
69214;BME280;56325;47.030;18.518;2023-04-28T10:43:39;100833.09;;;17.07;35.96
69214;BME280;56325;47.030;18.518;2023-04-28T10:46:15;100832.56;;;17.34;33.96
69214;BME280;56325;47.030;18.518;2023-04-28T10:48:56;100818.28;;;17.73;35.13
69214;BME280;56325;47.030;18.518;2023-04-28T10:51:32;100813.16;;;17.40;34.90
69214;BME280;56325;47.030;18.518;2023-04-28T10:54:16;100805.41;;;17.18;36.60
69214;BME280;56325;47.030;18.518;2023-04-28T10:57:17;100797.69;;;17.64;36.32
69214;BME280;56325;47.030;18.518;2023-04-28T11:00:27;100792.13;;;17.96;36.00
69214;BME280;56325;47.030;18.518;2023-04-28T11:03:04;100779.34;;;18.15;34.54
69214;BME280;56325;47.030;18.518;2023-04-28T11:05:38;100783.59;;;18.05;35.07
69214;BME280;56325;47.030;18.518;2023-04-28T11:08:34;100783.78;;;17.96;33.67
69214;BME280;56325;47.030;18.518;2023-04-28T11:11:21;100780.16;;;18.32;34.42
69214;BME280;56325;47.030;18.518;2023-04-28T11:17:05;100753.75;;;18.76;34.86
69214;BME280;56325;47.030;18.518;2023-04-28T11:19:43;100760.25;;;18.51;34.73
69214;BME280;56325;47.030;18.518;2023-04-28T11:22:19;100756.41;;;18.43;34.46
69214;BME280;56325;47.030;18.518;2023-04-28T11:24:56;100758.87;;;18.18;34.34
69214;BME280;56325;47.030;18.518;2023-04-28T11:27:32;100765.91;;;18.08;34.70
69214;BME280;56325;47.030;18.518;2023-04-28T11:30:19;100753.13;;;18.44;35.66
69214;BME280;56325;47.030;18.518;2023-04-28T11:32:54;100751.84;;;18.40;34.07
69214;BME280;56325;47.030;18.518;2023-04-28T11:35:40;100755.59;;;18.25;33.66
69214;BME280;56325;47.030;18.518;2023-04-28T11:38:15;100755.09;;;18.27;33.62
69214;BME280;56325;47.030;18.518;2023-04-28T11:40:56;100754.53;;;18.77;33.97
69214;BME280;56325;47.030;18.518;2023-04-28T11:43:31;100750.25;;;19.15;33.69
69214;BME280;56325;47.030;18.518;2023-04-28T11:46:20;100744.69;;;19.15;35.08
69214;BME280;56325;47.030;18.518;2023-04-28T11:49:02;100745.19;;;19.08;33.83
69214;BME280;56325;47.030;18.518;2023-04-28T11:51:39;100749.00;;;19.05;34.28
69214;BME280;56325;47.030;18.518;2023-04-28T11:54:19;100743.66;;;19.12;33.08
69214;BME280;56325;47.030;18.518;2023-04-28T11:56:55;100731.25;;;18.85;34.01
69214;BME280;56325;47.030;18.518;2023-04-28T11:59:31;100725.31;;;18.55;32.89
69214;BME280;56325;47.030;18.518;2023-04-28T12:02:06;100715.03;;;18.95;34.79
69214;BME280;56325;47.030;18.518;2023-04-28T12:04:48;100720.62;;;19.06;34.02
69214;BME280;56325;47.030;18.518;2023-04-28T12:07:23;100718.56;;;19.23;33.46
69214;BME280;56325;47.030;18.518;2023-04-28T12:10:12;100702.09;;;19.64;34.68
69214;BME280;56325;47.030;18.518;2023-04-28T12:12:48;100700.31;;;19.11;34.74
69214;BME280;56325;47.030;18.518;2023-04-28T12:15:38;100696.00;;;19.55;35.13
69214;BME280;56325;47.030;18.518;2023-04-28T12:18:13;100690.94;;;19.20;33.64
69214;BME280;56325;47.030;18.518;2023-04-28T12:20:51;100685.53;;;19.83;33.76
69214;BME280;56325;47.030;18.518;2023-04-28T12:23:31;100687.63;;;19.60;33.61
69214;BME280;56325;47.030;18.518;2023-04-28T12:26:06;100679.78;;;19.59;33.60
69214;BME280;56325;47.030;18.518;2023-04-28T12:28:42;100659.25;;;19.34;32.98
69214;BME280;56325;47.030;18.518;2023-04-28T12:31:17;100653.66;;;19.56;34.65
69214;BME280;56325;47.030;18.518;2023-04-28T12:33:51;100654.63;;;19.76;34.08
69214;BME280;56325;47.030;18.518;2023-04-28T12:36:25;100653.59;;;19.79;33.21
69214;BME280;56325;47.030;18.518;2023-04-28T12:39:01;100659.66;;;19.83;34.21
69214;BME280;56325;47.030;18.518;2023-04-28T12:41:36;100653.25;;;19.93;33.11
69214;BME280;56325;47.030;18.518;2023-04-28T12:44:11;100645.16;;;20.42;33.79
69214;BME280;56325;47.030;18.518;2023-04-28T12:46:45;100636.41;;;20.16;32.01
69214;BME280;56325;47.030;18.518;2023-04-28T12:49:20;100637.34;;;19.83;32.95
69214;BME280;56325;47.030;18.518;2023-04-28T12:51:54;100646.03;;;19.62;32.69
69214;BME280;56325;47.030;18.518;2023-04-28T12:54:30;100637.47;;;19.27;33.17
69214;BME280;56325;47.030;18.518;2023-04-28T12:57:05;100622.19;;;19.61;34.79
69214;BME280;56325;47.030;18.518;2023-04-28T12:59:40;100610.88;;;19.95;33.94
69214;BME280;56325;47.030;18.518;2023-04-28T13:02:15;100604.91;;;20.62;34.80
69214;BME280;56325;47.030;18.518;2023-04-28T13:04:50;100595.59;;;20.48;31.84
69214;BME280;56325;47.030;18.518;2023-04-28T13:07:26;100599.50;;;20.70;33.44
69214;BME280;56325;47.030;18.518;2023-04-28T13:10:04;100596.50;;;19.80;32.53
69214;BME280;56325;47.030;18.518;2023-04-28T13:12:40;100590.41;;;20.22;33.78
69214;BME280;56325;47.030;18.518;2023-04-28T13:15:15;100591.53;;;20.08;33.71
69214;BME280;56325;47.030;18.518;2023-04-28T13:17:49;100596.19;;;20.36;34.91
69214;BME280;56325;47.030;18.518;2023-04-28T13:20:24;100598.75;;;19.87;33.85
69214;BME280;56325;47.030;18.518;2023-04-28T13:22:59;100584.03;;;19.92;34.05
69214;BME280;56325;47.030;18.518;2023-04-28T13:25:35;100584.72;;;19.98;34.59
69214;BME280;56325;47.030;18.518;2023-04-28T13:28:09;100584.12;;;19.70;34.47
69214;BME280;56325;47.030;18.518;2023-04-28T13:30:45;100580.16;;;19.37;35.91
69214;BME280;56325;47.030;18.518;2023-04-28T13:33:20;100579.91;;;19.29;37.04
69214;BME280;56325;47.030;18.518;2023-04-28T13:35:54;100585.00;;;19.20;36.41
69214;BME280;56325;47.030;18.518;2023-04-28T13:38:29;100585.75;;;19.20;37.19
69214;BME280;56325;47.030;18.518;2023-04-28T13:41:05;100581.97;;;19.12;36.26